Time;durP1;ratioP1;P1;durP2;ratioP2;P2;SDS_P1;SDS_P2;PMS_P1;PMS_P2;Temp;Humidity;BMP_temperature;BMP_pressure;BME280_temperature;BME280_humidity;BME280_pressure;Samples;Min_cycle;Max_cycle;Signal;HPM_P1;HPM_P2
2023/08/22 00:01:00;;;;;;;6.28;4.50;;;24.80;99.90;;;;;;4960134;28;20027;-86
2023/08/22 00:03:25;;;;;;;9.77;4.40;;;24.70;99.90;;;;;;4976808;28;20054;-86
2023/08/22 00:05:51;;;;;;;7.88;4.88;;;24.70;99.90;;;;;;4976259;28;20078;-87
2023/08/22 00:08:17;;;;;;;5.72;4.25;;;24.70;99.90;;;;;;4959597;28;20027;-87
2023/08/22 00:10:42;;;;;;;8.55;4.68;;;24.70;99.90;;;;;;4960025;28;20084;-88
2023/08/22 00:13:08;;;;;;;5.68;4.05;;;24.60;99.90;;;;;;4959947;28;20027;-86
2023/08/22 00:15:33;;;;;;;8.65;4.75;;;24.60;99.90;;;;;;4959549;28;20045;-87
2023/08/22 00:17:59;;;;;;;6.53;4.30;;;24.50;99.90;;;;;;4976748;28;20062;-87
2023/08/22 00:20:25;;;;;;;5.80;4.25;;;24.50;99.90;;;;;;4959352;28;20031;-87
2023/08/22 00:22:51;;;;;;;7.05;4.32;;;24.60;99.90;;;;;;4959754;28;20124;-87
2023/08/22 00:25:16;;;;;;;5.85;4.20;;;24.50;99.90;;;;;;4976203;28;20043;-87
2023/08/22 00:27:42;;;;;;;5.78;4.55;;;24.50;99.90;;;;;;4959542;28;20031;-87
2023/08/22 00:30:08;;;;;;;6.75;4.07;;;24.40;99.90;;;;;;4959628;28;20114;-87
2023/08/22 00:32:34;;;;;;;5.97;4.20;;;24.40;99.90;;;;;;4959005;28;20035;-86
2023/08/22 00:35:00;;;;;;;7.47;4.50;;;24.30;99.90;;;;;;4959997;28;20097;-86
2023/08/22 00:37:27;;;;;;;6.57;4.60;;;24.30;99.90;;;;;;4959122;28;20034;-87
2023/08/22 00:39:53;;;;;;;8.68;4.70;;;24.30;99.90;;;;;;4959391;28;20034;-86
2023/08/22 00:42:18;;;;;;;6.47;4.47;;;24.30;99.90;;;;;;4958725;28;20105;-87
2023/08/22 00:44:44;;;;;;;5.13;4.25;;;24.30;99.90;;;;;;4959333;28;20031;-86
2023/08/22 00:47:10;;;;;;;10.07;4.78;;;24.40;99.90;;;;;;4959249;28;20053;-86
2023/08/22 00:49:37;;;;;;;7.03;4.38;;;24.30;99.90;;;;;;4975780;28;20106;-86
2023/08/22 00:52:04;;;;;;;6.80;5.03;;;24.30;99.90;;;;;;4976531;28;20037;-87
2023/08/22 00:54:30;;;;;;;7.28;4.32;;;24.30;99.90;;;;;;4975953;28;20058;-87
2023/08/22 00:56:57;;;;;;;5.55;4.50;;;24.30;99.90;;;;;;4959013;28;20526;-87
2023/08/22 00:59:27;;;;;;;6.82;4.10;;;24.30;99.90;;;;;;4975623;28;20027;-87
2023/08/22 01:01:53;;;;;;;6.03;4.32;;;24.30;99.90;;;;;;4959435;28;20034;-87
2023/08/22 01:04:20;;;;;;;6.63;4.70;;;24.30;99.90;;;;;;4959260;28;20023;-87
2023/08/22 01:06:52;;;;;;;5.43;4.38;;;24.30;99.90;;;;;;4976484;28;20480;-87
2023/08/22 01:09:37;;;;;;;5.78;4.47;;;24.30;99.90;;;;;;4959252;28;20030;-88
2023/08/22 01:12:33;;;;;;;7.13;4.80;;;24.30;99.90;;;;;;4976322;28;20030;-88
2023/08/22 01:15:09;;;;;;;5.53;4.72;;;24.20;99.90;;;;;;4976218;28;20034;-88
2023/08/22 01:17:36;;;;;;;9.80;5.43;;;24.20;99.90;;;;;;4958745;28;20034;-88
2023/08/22 01:20:04;;;;;;;12.45;4.82;;;24.10;99.90;;;;;;4975963;28;20031;-88
2023/08/22 01:22:30;;;;;;;8.77;4.85;;;24.10;99.90;;;;;;4958445;28;20117;-88
2023/08/22 01:24:55;;;;;;;7.50;4.95;;;24.00;99.90;;;;;;4975886;28;20058;-88
2023/08/22 01:27:25;;;;;;;8.23;4.65;;;24.00;99.90;;;;;;4958775;28;20031;-88
2023/08/22 01:29:58;;;;;;;5.65;4.65;;;23.80;99.90;;;;;;4958909;28;20031;-90
2023/08/22 01:32:30;;;;;;;7.38;4.80;;;23.80;99.90;;;;;;4958684;28;20027;-88
2023/08/22 01:35:02;;;;;;;6.82;5.07;;;23.80;99.90;;;;;;4976325;28;20115;-88
2023/08/22 01:37:30;;;;;;;6.53;4.90;;;23.80;99.90;;;;;;4975422;28;20030;-88
2023/08/22 01:39:58;;;;;;;6.65;4.95;;;23.70;99.90;;;;;;4975704;28;20077;-86
2023/08/22 01:42:24;;;;;;;7.05;4.82;;;23.60;99.90;;;;;;4975476;28;20424;-85
2023/08/22 01:44:50;;;;;;;7.97;5.18;;;23.60;99.90;;;;;;4975649;28;20361;-87
2023/08/22 01:47:15;;;;;;;9.38;4.70;;;23.60;99.90;;;;;;4958530;28;20138;-87
2023/08/22 01:49:41;;;;;;;6.53;4.75;;;23.50;99.90;;;;;;4957989;28;20277;-87
2023/08/22 01:52:06;;;;;;;5.95;4.38;;;23.50;99.90;;;;;;4959108;28;20464;-87
2023/08/22 01:54:37;;;;;;;8.13;4.80;;;23.50;99.90;;;;;;4958544;28;20604;-87
2023/08/22 01:57:03;;;;;;;7.10;4.68;;;23.50;99.90;;;;;;4959297;28;20084;-87
2023/08/22 01:59:28;;;;;;;9.02;5.10;;;23.60;99.90;;;;;;4975278;28;20464;-86
2023/08/22 02:01:54;;;;;;;9.80;5.47;;;23.50;99.90;;;;;;4975689;28;20034;-86
2023/08/22 02:04:20;;;;;;;11.48;5.28;;;23.50;99.90;;;;;;4958031;28;20027;-88
2023/08/22 02:06:46;;;;;;;9.15;5.10;;;23.50;99.90;;;;;;4958209;28;20042;-87
2023/08/22 02:09:13;;;;;;;7.70;5.20;;;23.50;99.90;;;;;;4958548;28;20031;-87
2023/08/22 02:11:38;;;;;;;8.70;5.22;;;23.50;99.90;;;;;;4957929;28;20054;-86
2023/08/22 02:14:04;;;;;;;9.27;5.30;;;23.50;99.90;;;;;;4958482;28;20034;-87
2023/08/22 02:16:29;;;;;;;6.90;4.93;;;23.50;99.90;;;;;;4957987;28;20041;-86
2023/08/22 02:18:55;;;;;;;10.77;5.18;;;23.40;99.90;;;;;;4958244;28;20367;-86
2023/08/22 02:21:21;;;;;;;7.00;4.97;;;23.40;99.90;;;;;;4975287;28;20081;-87
2023/08/22 02:23:46;;;;;;;13.35;4.60;;;23.40;99.90;;;;;;4958213;28;20423;-86
2023/08/22 02:26:12;;;;;;;8.68;4.82;;;23.40;99.90;;;;;;4975189;28;20118;-86
2023/08/22 02:28:37;;;;;;;8.95;4.80;;;23.30;99.90;;;;;;4976607;28;20030;-86
2023/08/22 02:31:03;;;;;;;7.45;4.97;;;23.30;99.90;;;;;;4962325;28;20030;-86
2023/08/22 02:33:29;;;;;;;8.18;5.25;;;23.20;99.90;;;;;;4961672;28;20077;-86
2023/08/22 02:35:54;;;;;;;7.13;5.00;;;23.30;99.90;;;;;;4962374;28;20034;-86
2023/08/22 02:38:20;;;;;;;7.00;4.93;;;23.30;99.90;;;;;;4978879;28;20479;-87
2023/08/22 02:40:46;;;;;;;11.25;5.18;;;23.30;99.90;;;;;;4961502;28;20046;-87
2023/08/22 02:43:11;;;;;;;9.43;5.30;;;23.30;99.90;;;;;;4978923;28;20035;-86
2023/08/22 02:45:37;;;;;;;6.35;4.80;;;23.30;99.90;;;;;;4961682;28;20034;-86
2023/08/22 02:48:03;;;;;;;6.55;4.90;;;23.20;99.90;;;;;;4962020;28;20133;-88
2023/08/22 02:50:29;;;;;;;6.05;4.97;;;23.10;99.90;;;;;;4961435;28;20023;-88
2023/08/22 02:52:54;;;;;;;8.45;5.00;;;23.10;99.90;;;;;;4961714;28;20054;-88
2023/08/22 02:55:20;;;;;;;8.60;5.10;;;23.00;99.90;;;;;;4962086;28;20186;-89
2023/08/22 02:57:46;;;;;;;8.43;4.90;;;23.00;99.90;;;;;;4978671;28;20019;-89
2023/08/22 03:00:13;;;;;;;7.88;4.75;;;23.00;99.90;;;;;;4961754;28;20031;-89
2023/08/22 03:02:39;;;;;;;8.75;5.05;;;23.00;99.90;;;;;;4961177;28;20030;-88
2023/08/22 03:05:08;;;;;;;8.18;4.72;;;23.00;99.90;;;;;;4978468;28;20029;-86
2023/08/22 03:07:34;;;;;;;6.30;4.85;;;23.00;99.90;;;;;;4960893;28;20031;-86
2023/08/22 03:09:59;;;;;;;6.90;4.90;;;23.10;99.90;;;;;;4961530;28;20033;-88
2023/08/22 03:12:25;;;;;;;6.32;4.82;;;23.10;99.90;;;;;;4980453;28;20060;-87
2023/08/22 03:14:51;;;;;;;6.63;4.75;;;23.00;99.90;;;;;;5000157;28;20030;-88
2023/08/22 03:17:16;;;;;;;6.90;4.78;;;22.90;99.90;;;;;;4999968;28;20030;-86
2023/08/22 03:19:42;;;;;;;6.30;4.28;;;23.00;99.90;;;;;;5016663;28;20036;-86
2023/08/22 03:22:08;;;;;;;6.63;5.13;;;23.00;99.90;;;;;;4999847;28;20022;-85
2023/08/22 03:24:33;;;;;;;6.97;4.93;;;22.90;99.90;;;;;;4999349;28;20033;-86
2023/08/22 03:26:59;;;;;;;10.23;5.05;;;22.90;99.90;;;;;;5000232;28;20041;-86
2023/08/22 03:29:25;;;;;;;8.20;4.93;;;22.90;99.90;;;;;;5017056;28;20455;-88
2023/08/22 03:31:51;;;;;;;6.47;4.95;;;22.80;99.90;;;;;;4999593;28;20048;-86
2023/08/22 03:34:16;;;;;;;6.78;4.95;;;22.70;99.90;;;;;;4999636;28;20033;-87
2023/08/22 03:36:42;;;;;;;6.38;4.32;;;22.80;99.90;;;;;;4998950;28;20033;-87
2023/08/22 03:39:07;;;;;;;8.13;5.22;;;22.80;99.90;;;;;;4998422;28;20065;-87
2023/08/22 03:41:33;;;;;;;10.20;4.93;;;22.70;99.90;;;;;;5015160;28;20418;-86
2023/08/22 03:43:59;;;;;;;8.25;4.95;;;22.80;99.90;;;;;;5001202;28;20026;-86
2023/08/22 03:46:24;;;;;;;6.72;5.00;;;22.70;99.90;;;;;;4979753;28;20081;-87
2023/08/22 03:48:50;;;;;;;6.10;4.90;;;22.80;99.90;;;;;;4980685;28;20471;-86
2023/08/22 03:51:15;;;;;;;8.38;4.70;;;22.70;99.90;;;;;;4997169;28;20026;-86
2023/08/22 03:53:41;;;;;;;8.35;5.20;;;22.80;99.90;;;;;;4996810;28;20514;-86
2023/08/22 03:56:06;;;;;;;8.40;4.97;;;22.80;99.90;;;;;;4979850;28;20030;-85
2023/08/22 03:58:33;;;;;;;8.23;4.60;;;22.80;99.90;;;;;;4979387;28;20030;-86
2023/08/22 04:01:03;;;;;;;7.95;4.95;;;22.80;99.90;;;;;;4979822;28;20026;-86
2023/08/22 04:03:29;;;;;;;6.57;4.70;;;22.70;99.90;;;;;;4979240;28;20081;-86
2023/08/22 04:05:55;;;;;;;8.95;4.35;;;22.70;99.90;;;;;;4979941;28;20062;-86
2023/08/22 04:08:20;;;;;;;7.53;4.60;;;22.70;99.90;;;;;;4979817;28;20576;-85
2023/08/22 04:10:46;;;;;;;6.72;4.85;;;22.70;99.90;;;;;;4995969;28;20030;-86
2023/08/22 04:13:12;;;;;;;7.70;5.50;;;22.70;99.90;;;;;;4979663;28;20026;-86
2023/08/22 04:15:39;;;;;;;8.82;5.03;;;22.70;99.90;;;;;;4996292;28;20030;-86
2023/08/22 04:18:05;;;;;;;8.02;4.95;;;22.70;99.90;;;;;;4996300;28;20034;-85
2023/08/22 04:20:31;;;;;;;6.90;4.68;;;22.60;99.90;;;;;;4996308;28;20030;-86
2023/08/22 04:22:56;;;;;;;8.25;5.10;;;22.50;99.90;;;;;;4996885;28;20030;-87
2023/08/22 04:25:22;;;;;;;7.15;5.05;;;22.60;99.90;;;;;;4979488;28;20038;-86
2023/08/22 04:27:48;;;;;;;8.02;5.00;;;22.60;99.90;;;;;;4981405;28;20030;-86
2023/08/22 04:30:13;;;;;;;7.05;5.28;;;22.60;99.90;;;;;;4979659;28;20033;-86
2023/08/22 04:32:39;;;;;;;9.75;4.65;;;22.50;99.90;;;;;;4979047;28;20061;-86
2023/08/22 04:35:05;;;;;;;8.73;4.90;;;22.50;99.90;;;;;;4979311;28;20050;-86
2023/08/22 04:37:30;;;;;;;7.32;4.80;;;22.50;99.90;;;;;;4978904;28;20022;-87
2023/08/22 04:39:56;;;;;;;8.18;4.40;;;22.50;99.90;;;;;;4996093;28;20538;-85
2023/08/22 04:42:23;;;;;;;5.55;4.78;;;22.60;99.90;;;;;;4996342;28;20387;-86
2023/08/22 04:44:49;;;;;;;9.13;5.35;;;22.70;99.90;;;;;;4995944;28;20062;-87
2023/08/22 04:47:14;;;;;;;11.95;4.60;;;22.50;99.90;;;;;;4979338;28;20505;-86
2023/08/22 04:49:40;;;;;;;5.85;4.63;;;22.50;99.90;;;;;;4995578;28;20026;-87
2023/08/22 04:52:06;;;;;;;8.82;4.90;;;22.60;99.90;;;;;;4995775;28;20101;-86
2023/08/22 04:54:31;;;;;;;8.98;4.80;;;22.60;99.90;;;;;;4995646;28;20026;-86
2023/08/22 04:56:57;;;;;;;9.07;4.75;;;22.50;99.90;;;;;;4996137;28;20423;-86
2023/08/22 04:59:22;;;;;;;6.95;5.20;;;22.50;99.90;;;;;;4978924;28;20048;-86
2023/08/22 05:01:48;;;;;;;7.18;4.93;;;22.50;99.90;;;;;;4995753;28;20034;-86
2023/08/22 05:04:14;;;;;;;7.50;5.22;;;22.60;99.90;;;;;;4978767;28;20034;-86
2023/08/22 05:06:40;;;;;;;10.88;4.90;;;22.50;99.90;;;;;;4995762;28;20391;-86
2023/08/22 05:09:05;;;;;;;8.77;5.00;;;22.60;99.90;;;;;;4978755;28;20022;-86
2023/08/22 05:11:31;;;;;;;8.48;4.53;;;22.60;99.90;;;;;;4978297;28;20464;-86
2023/08/22 05:13:56;;;;;;;8.30;4.90;;;22.60;99.90;;;;;;4978623;28;20032;-86
2023/08/22 05:16:22;;;;;;;9.20;5.07;;;22.60;99.90;;;;;;4996060;28;20113;-86
2023/08/22 05:18:47;;;;;;;10.05;5.10;;;22.60;99.90;;;;;;4995351;28;20097;-86
2023/08/22 05:21:13;;;;;;;7.65;4.78;;;22.60;99.90;;;;;;4978760;28;20022;-86
2023/08/22 05:23:39;;;;;;;9.90;5.45;;;22.60;99.90;;;;;;4977902;28;20026;-86
2023/08/22 05:26:04;;;;;;;7.53;5.18;;;22.60;99.90;;;;;;4978328;28;20085;-86
2023/08/22 05:28:30;;;;;;;9.18;5.20;;;22.60;99.90;;;;;;4995029;28;20050;-87
2023/08/22 05:30:55;;;;;;;7.65;5.18;;;22.60;99.90;;;;;;4995568;28;20460;-86
2023/08/22 05:33:21;;;;;;;7.03;4.97;;;22.70;99.90;;;;;;4978385;28;20026;-86
2023/08/22 05:35:46;;;;;;;7.10;4.50;;;22.70;99.90;;;;;;4977748;28;20464;-86
2023/08/22 05:38:12;;;;;;;7.38;4.38;;;22.70;99.90;;;;;;4978365;28;20027;-86
2023/08/22 05:40:38;;;;;;;13.60;5.15;;;22.80;99.90;;;;;;4979958;28;20052;-86
2023/08/22 05:43:03;;;;;;;5.82;4.63;;;22.80;99.90;;;;;;4994328;28;20031;-86
2023/08/22 05:45:29;;;;;;;8.27;5.10;;;22.80;99.90;;;;;;4994150;28;20034;-86
2023/08/22 05:47:55;;;;;;;9.73;4.93;;;22.90;99.90;;;;;;4993375;28;20030;-86
2023/08/22 05:50:20;;;;;;;7.63;4.70;;;22.90;99.90;;;;;;4995252;28;20022;-86
2023/08/22 05:52:46;;;;;;;7.57;4.72;;;22.90;99.90;;;;;;4993263;28;20022;-86
2023/08/22 05:55:13;;;;;;;6.43;4.72;;;23.00;99.90;;;;;;4993695;28;20145;-86
2023/08/22 05:57:38;;;;;;;9.55;4.80;;;23.00;99.90;;;;;;4994667;28;20061;-86
2023/08/22 06:00:05;;;;;;;6.40;4.38;;;23.00;99.90;;;;;;4994307;28;20050;-86
2023/08/22 06:02:30;;;;;;;6.57;4.07;;;23.10;99.90;;;;;;4993958;28;20030;-86
2023/08/22 06:04:56;;;;;;;5.88;3.50;;;23.20;99.90;;;;;;4994076;28;20027;-86
2023/08/22 06:07:22;;;;;;;5.07;3.20;;;23.20;99.90;;;;;;4995673;28;20042;-86
2023/08/22 06:09:47;;;;;;;6.93;3.63;;;23.20;99.90;;;;;;4994814;28;20104;-86
2023/08/22 06:12:13;;;;;;;9.10;3.58;;;23.20;99.90;;;;;;4997481;28;20029;-86
2023/08/22 06:14:38;;;;;;;6.78;3.25;;;23.30;99.90;;;;;;4996081;28;20030;-86
2023/08/22 06:17:04;;;;;;;6.22;3.78;;;23.30;99.90;;;;;;4996307;28;20031;-86
2023/08/22 06:19:30;;;;;;;4.95;3.55;;;23.30;99.90;;;;;;4995906;28;20026;-86
2023/08/22 06:21:55;;;;;;;7.22;3.90;;;23.40;99.90;;;;;;4995013;28;20053;-85
2023/08/22 06:24:21;;;;;;;6.35;3.53;;;23.40;99.90;;;;;;4994047;28;20081;-86
2023/08/22 06:26:48;;;;;;;6.07;3.70;;;23.50;99.90;;;;;;4993580;28;20030;-86
2023/08/22 06:29:13;;;;;;;12.70;4.20;;;23.50;99.90;;;;;;4995350;28;20042;-86
2023/08/22 06:31:39;;;;;;;7.70;3.33;;;23.50;99.90;;;;;;4993629;28;20475;-86
2023/08/22 06:34:04;;;;;;;5.63;3.40;;;23.50;99.90;;;;;;4995457;28;20023;-85
2023/08/22 06:36:30;;;;;;;8.95;3.63;;;23.60;99.90;;;;;;4993571;28;20030;-84
2023/08/22 06:38:55;;;;;;;6.97;3.63;;;23.70;99.90;;;;;;4994374;28;20098;-84
2023/08/22 06:41:21;;;;;;;9.10;4.13;;;23.70;99.90;;;;;;4993625;28;20086;-86
2023/08/22 06:43:47;;;;;;;6.35;3.40;;;23.70;99.90;;;;;;4993495;28;20038;-86
2023/08/22 06:46:13;;;;;;;8.02;4.05;;;23.70;99.90;;;;;;4993430;28;20046;-86
2023/08/22 06:48:38;;;;;;;9.20;3.50;;;23.80;99.90;;;;;;4992986;28;20138;-87
2023/08/22 06:51:04;;;;;;;5.78;3.30;;;23.80;99.90;;;;;;4993870;28;20023;-86
2023/08/22 06:53:29;;;;;;;8.02;3.50;;;23.90;99.90;;;;;;4994816;28;20061;-86
2023/08/22 06:55:56;;;;;;;4.82;3.05;;;23.90;99.90;;;;;;4992433;28;20764;-86
2023/08/22 06:58:21;;;;;;;8.40;3.47;;;23.90;99.90;;;;;;4993601;28;20026;-87
2023/08/22 07:00:48;;;;;;;9.43;3.80;;;23.90;99.90;;;;;;4993184;28;20088;-86
2023/08/22 07:03:14;;;;;;;6.03;3.20;;;24.00;99.90;;;;;;4994785;28;20034;-86
2023/08/22 07:05:40;;;;;;;7.90;3.67;;;24.00;99.90;;;;;;4992702;28;20041;-87
2023/08/22 07:08:07;;;;;;;7.53;4.13;;;24.00;99.90;;;;;;4992959;28;20038;-86
2023/08/22 07:10:34;;;;;;;7.80;3.80;;;24.00;99.90;;;;;;4993242;28;20467;-86
2023/08/22 07:13:00;;;;;;;6.45;3.80;;;24.10;99.90;;;;;;4992475;28;20061;-86
2023/08/22 07:15:25;;;;;;;7.55;3.80;;;24.10;99.90;;;;;;4995254;28;20055;-86
2023/08/22 07:17:51;;;;;;;7.15;3.67;;;24.10;99.90;;;;;;4997410;28;20436;-86
2023/08/22 07:20:17;;;;;;;8.65;3.53;;;24.20;99.90;;;;;;4995292;28;20045;-82
2023/08/22 07:22:43;;;;;;;5.00;3.58;;;24.20;99.90;;;;;;4996536;28;20019;-83
2023/08/22 07:25:09;;;;;;;8.55;3.70;;;24.30;99.90;;;;;;4996370;28;20383;-84
2023/08/22 07:27:34;;;;;;;6.63;3.75;;;24.30;99.90;;;;;;4997127;28;20486;-83
2023/08/22 07:30:00;;;;;;;6.57;4.50;;;24.40;99.90;;;;;;4995721;28;20022;-83
2023/08/22 07:32:25;;;;;;;9.55;4.40;;;24.40;99.90;;;;;;4997373;28;20053;-83
2023/08/22 07:34:52;;;;;;;8.18;4.70;;;24.40;99.90;;;;;;4996589;28;20031;-83
2023/08/22 07:37:18;;;;;;;9.30;4.45;;;24.50;99.90;;;;;;4997066;28;20041;-83
2023/08/22 07:39:43;;;;;;;5.80;4.90;;;24.50;99.90;;;;;;4995395;28;20438;-84
2023/08/22 07:42:09;;;;;;;7.55;5.25;;;24.50;99.90;;;;;;4996122;28;20042;-83
2023/08/22 07:44:35;;;;;;;10.43;5.70;;;24.60;99.90;;;;;;4996389;28;20026;-84
2023/08/22 07:47:01;;;;;;;10.00;5.20;;;24.60;99.90;;;;;;4997225;28;20197;-84
2023/08/22 07:49:26;;;;;;;8.13;5.93;;;24.60;99.90;;;;;;4996449;28;20423;-84
2023/08/22 07:51:52;;;;;;;8.50;5.13;;;24.70;99.90;;;;;;4995714;28;20121;-84
2023/08/22 07:54:18;;;;;;;7.28;5.57;;;24.70;99.90;;;;;;4996420;28;20030;-83
2023/08/22 07:56:44;;;;;;;8.57;5.85;;;24.80;99.90;;;;;;4996824;28;20026;-84
2023/08/22 07:59:12;;;;;;;8.40;5.47;;;24.80;99.90;;;;;;4995805;28;20117;-83
2023/08/22 08:01:37;;;;;;;7.45;4.63;;;24.90;99.90;;;;;;4996286;28;20128;-83
2023/08/22 08:04:03;;;;;;;7.93;5.10;;;24.90;99.90;;;;;;4975988;28;20464;-83
2023/08/22 08:06:35;;;;;;;9.60;5.28;;;24.90;99.90;;;;;;4986469;28;20041;-83
2023/08/22 08:09:04;;;;;;;6.25;5.20;;;25.00;99.90;;;;;;4992442;28;20547;-84
2023/08/22 08:11:30;;;;;;;7.63;5.18;;;25.00;99.90;;;;;;4995187;28;20023;-84
2023/08/22 08:13:56;;;;;;;8.93;4.75;;;25.10;99.90;;;;;;4995471;28;20022;-84
2023/08/22 08:16:22;;;;;;;5.93;4.93;;;25.20;99.90;;;;;;4995639;28;20085;-84
2023/08/22 08:18:50;;;;;;;6.22;4.78;;;25.20;99.90;;;;;;4994662;28;20498;-85
2023/08/22 08:21:16;;;;;;;9.60;4.65;;;25.20;99.90;;;;;;4997110;28;20023;-84
2023/08/22 08:23:44;;;;;;;8.95;5.03;;;25.30;99.90;;;;;;4995527;28;20384;-86
2023/08/22 08:26:09;;;;;;;10.10;4.93;;;25.40;99.90;;;;;;4996236;28;20085;-84
2023/08/22 08:28:35;;;;;;;8.57;4.60;;;25.40;99.90;;;;;;4996844;28;20030;-84
2023/08/22 08:31:00;;;;;;;9.65;4.80;;;25.40;99.90;;;;;;4995279;28;20022;-84
2023/08/22 08:33:26;;;;;;;9.32;4.43;;;25.40;99.90;;;;;;4996552;28;20026;-84
2023/08/22 08:35:51;;;;;;;6.00;4.38;;;25.50;99.90;;;;;;4995154;28;20383;-84
2023/08/22 08:38:17;;;;;;;6.53;4.45;;;25.50;99.90;;;;;;4996470;28;20482;-84
2023/08/22 08:40:44;;;;;;;4.95;3.60;;;25.50;99.90;;;;;;4995081;28;20053;-85
2023/08/22 08:43:10;;;;;;;5.68;3.58;;;25.50;99.90;;;;;;4995344;28;20550;-84
2023/08/22 08:45:36;;;;;;;4.22;3.55;;;25.60;99.90;;;;;;4996460;28;20109;-83
2023/08/22 08:48:03;;;;;;;4.85;3.65;;;25.70;99.90;;;;;;4994823;28;20042;-83
2023/08/22 08:50:30;;;;;;;6.20;3.30;;;25.70;99.90;;;;;;4996325;28;20023;-84
2023/08/22 08:52:56;;;;;;;6.43;3.30;;;25.70;99.90;;;;;;4995732;28;20031;-83
2023/08/22 08:55:22;;;;;;;4.85;2.90;;;25.70;99.90;;;;;;4996254;28;20026;-84
2023/08/22 08:57:47;;;;;;;3.55;2.65;;;25.80;99.90;;;;;;4994860;28;20030;-84
2023/08/22 09:00:15;;;;;;;3.00;2.60;;;25.90;99.90;;;;;;4995291;28;20464;-83
2023/08/22 09:02:40;;;;;;;4.38;2.70;;;25.90;99.90;;;;;;4995297;28;20038;-83
2023/08/22 09:05:06;;;;;;;5.38;2.72;;;26.00;99.90;;;;;;4994486;28;20022;-83
2023/08/22 09:07:33;;;;;;;5.10;3.10;;;26.00;99.90;;;;;;4995010;28;20046;-84
2023/08/22 09:10:01;;;;;;;5.03;3.38;;;26.00;99.90;;;;;;4994550;28;20094;-84
2023/08/22 09:12:34;;;;;;;5.40;2.95;;;26.10;99.90;;;;;;4995631;28;20018;-84
2023/08/22 09:15:00;;;;;;;7.43;2.78;;;26.10;99.90;;;;;;4992852;28;20037;-83
2023/08/22 09:17:29;;;;;;;6.25;3.13;;;26.20;99.90;;;;;;4995327;28;20026;-83
2023/08/22 09:19:54;;;;;;;5.82;3.28;;;26.20;99.90;;;;;;4993917;28;20027;-84
2023/08/22 09:22:21;;;;;;;5.88;3.25;;;26.20;99.90;;;;;;4995896;28;20460;-84
2023/08/22 09:24:51;;;;;;;5.45;2.75;;;26.30;99.90;;;;;;4995276;28;20053;-84
2023/08/22 09:27:20;;;;;;;4.60;2.93;;;26.40;99.90;;;;;;4994110;28;20113;-83
2023/08/22 09:29:46;;;;;;;5.85;3.35;;;26.40;99.90;;;;;;4993692;28;20264;-83
2023/08/22 09:32:11;;;;;;;4.20;3.05;;;26.40;99.90;;;;;;4994467;28;20386;-83
2023/08/22 09:34:37;;;;;;;6.13;2.83;;;26.50;99.90;;;;;;4995475;28;20022;-82
2023/08/22 09:37:03;;;;;;;4.57;3.10;;;26.50;99.90;;;;;;4994829;28;20045;-83
2023/08/22 09:39:30;;;;;;;4.43;2.50;;;26.50;99.90;;;;;;4994200;28;20053;-81
2023/08/22 09:41:57;;;;;;;5.60;2.83;;;26.50;99.90;;;;;;4995514;28;20573;-85
2023/08/22 09:44:27;;;;;;;4.05;2.50;;;26.60;99.90;;;;;;4978084;28;20027;-85
2023/08/22 09:46:55;;;;;;;5.28;2.83;;;26.80;99.90;;;;;;4977707;28;20499;-85
2023/08/22 09:49:21;;;;;;;2.92;2.13;;;26.80;99.90;;;;;;4995203;28;20026;-85
2023/08/22 09:51:50;;;;;;;4.00;2.65;;;26.80;99.90;;;;;;4994924;28;20444;-84
2023/08/22 09:54:16;;;;;;;4.85;2.53;;;26.70;99.90;;;;;;4978071;28;20055;-85
2023/08/22 09:56:42;;;;;;;4.78;2.25;;;26.80;99.90;;;;;;4995205;28;20022;-85
2023/08/22 09:59:10;;;;;;;6.32;2.78;;;26.90;99.90;;;;;;4977813;28;20100;-85
2023/08/22 10:01:40;;;;;;;3.28;2.05;;;27.00;99.90;;;;;;4978143;28;20018;-85
2023/08/22 10:04:07;;;;;;;5.72;2.75;;;27.00;99.90;;;;;;4977195;28;20034;-84
2023/08/22 10:06:35;;;;;;;4.43;2.65;;;27.10;99.90;;;;;;4977560;28;20035;-85
2023/08/22 10:09:07;;;;;;;3.75;2.50;;;27.00;99.90;;;;;;4994424;28;20027;-84
2023/08/22 10:11:41;;;;;;;4.68;2.30;;;27.10;99.90;;;;;;4994971;28;20073;-85
2023/08/22 10:14:12;;;;;;;4.53;2.35;;;27.20;99.90;;;;;;4994328;28;20220;-81
2023/08/22 10:16:38;;;;;;;6.57;2.70;;;27.30;99.90;;;;;;4994819;28;20475;-80
2023/08/22 10:19:04;;;;;;;6.97;2.60;;;27.40;99.90;;;;;;4994019;28;20088;-80
2023/08/22 10:21:45;;;;;;;6.00;2.28;;;27.50;99.90;;;;;;4977495;28;20050;-80
2023/08/22 10:24:21;;;;;;;;;;;27.50;99.90;;;;;;4977511;28;20019;-84
2023/08/22 10:26:58;;;;;;;4.18;2.40;;;27.50;99.90;;;;;;4994296;28;19992;-84
2023/08/22 10:29:24;;;;;;;4.28;2.45;;;27.60;99.90;;;;;;4977522;28;20097;-85
2023/08/22 10:32:01;;;;;;;5.55;2.47;;;27.70;99.90;;;;;;4977234;28;20026;-85
2023/08/22 10:34:39;;;;;;;5.00;2.40;;;27.70;99.90;;;;;;4977321;28;20470;-85
2023/08/22 10:37:25;;;;;;;2.20;2.00;;;27.70;99.90;;;;;;4994259;28;20034;-85
2023/08/22 10:39:52;;;;;;;4.68;2.40;;;27.80;99.90;;;;;;4994259;28;20030;-85
2023/08/22 10:42:19;;;;;;;5.57;2.67;;;27.90;99.90;;;;;;4993152;28;20154;-84
2023/08/22 10:44:56;;;;;;;4.20;2.40;;;27.90;99.90;;;;;;4993343;28;20056;-85
2023/08/22 10:47:30;;;;;;;4.93;2.10;;;27.90;99.90;;;;;;4993375;28;20476;-85
2023/08/22 10:49:58;;;;;;;3.42;2.05;;;28.00;99.90;;;;;;4995011;28;20110;-85
2023/08/22 10:52:43;;;;;;;4.28;1.95;;;28.10;99.90;;;;;;4998406;28;20443;-85
2023/08/22 10:55:13;;;;;;;2.85;1.80;;;28.20;99.90;;;;;;4997087;28;20301;-84
2023/08/22 10:57:42;;;;;;;4.97;1.92;;;28.30;99.90;;;;;;4997449;28;20030;-84
2023/08/22 11:00:20;;;;;;;5.05;2.10;;;28.30;99.90;;;;;;4997085;28;20025;-85
2023/08/22 11:02:55;;;;;;;3.58;1.63;;;28.30;99.90;;;;;;4998495;28;20022;-84
2023/08/22 11:05:21;;;;;;;4.72;2.03;;;28.50;99.90;;;;;;4998723;28;20018;-84
2023/08/22 11:07:51;;;;;;;5.20;2.08;;;28.60;99.90;;;;;;4996972;28;20463;-84
2023/08/22 11:10:20;;;;;;;3.28;1.88;;;28.70;99.90;;;;;;4997021;28;20026;-84
2023/08/22 11:12:47;;;;;;;3.28;1.92;;;28.80;99.90;;;;;;4996773;28;20022;-84
2023/08/22 11:15:17;;;;;;;3.22;1.80;;;29.00;99.90;;;;;;4996545;28;20034;-85
2023/08/22 11:17:46;;;;;;;3.92;1.67;;;29.10;99.90;;;;;;4997100;28;20026;-85
2023/08/22 11:20:14;;;;;;;2.85;1.80;;;29.00;99.90;;;;;;4996623;28;20170;-83
2023/08/22 11:22:40;;;;;;;4.72;2.20;;;29.00;99.90;;;;;;4996613;28;20057;-82
2023/08/22 11:25:06;;;;;;;1.90;1.42;;;29.00;99.90;;;;;;4997768;28;20018;-84
2023/08/22 11:27:35;;;;;;;6.30;1.95;;;29.00;99.90;;;;;;4997688;28;20025;-84
2023/08/22 11:30:01;;;;;;;3.80;2.10;;;29.10;99.90;;;;;;4997267;28;20120;-85
2023/08/22 11:32:35;;;;;;;3.63;1.48;;;29.10;99.90;;;;;;4994176;28;20456;-85
2023/08/22 11:35:06;;;;;;;3.58;1.80;;;29.10;99.90;;;;;;4995449;28;20157;-85
2023/08/22 11:37:33;;;;;;;3.00;1.73;;;29.10;99.90;;;;;;4996224;28;20077;-84
2023/08/22 11:40:00;;;;;;;4.65;1.83;;;29.00;99.90;;;;;;4995248;28;20038;-84
2023/08/22 11:42:29;;;;;;;2.65;1.70;;;29.10;99.90;;;;;;4996258;28;20054;-85
2023/08/22 11:45:21;;;;;;;2.63;1.70;;;29.00;99.90;;;;;;4995485;28;20026;-84
2023/08/22 11:47:47;;;;;;;4.80;1.70;;;29.10;99.90;;;;;;4996965;28;20629;-84
2023/08/22 11:50:18;;;;;;;4.97;1.55;;;29.10;99.90;;;;;;4995452;28;20038;-85
2023/08/22 11:52:46;;;;;;;2.53;1.60;;;29.10;99.90;;;;;;4997264;28;20142;-84
2023/08/22 11:55:16;;;;;;;4.65;2.00;;;29.20;99.90;;;;;;4995968;28;20084;-84
2023/08/22 11:57:43;;;;;;;2.55;1.70;;;29.20;99.90;;;;;;4996009;28;20460;-84
2023/08/22 12:00:14;;;;;;;4.50;1.63;;;29.30;99.90;;;;;;4996177;28;20104;-84
2023/08/22 12:02:52;;;;;;;4.22;2.35;;;29.30;99.90;;;;;;4995307;28;20026;-83
2023/08/22 12:05:44;;;;;;;4.30;1.83;;;29.40;99.90;;;;;;4996863;28;20210;-84
2023/08/22 12:08:13;;;;;;;6.72;1.85;;;29.50;99.30;;;;;;4995348;28;20041;-85
2023/08/22 12:10:43;;;;;;;3.08;1.67;;;29.50;99.50;;;;;;4995053;28;20069;-87
2023/08/22 12:13:10;;;;;;;3.47;1.42;;;29.60;99.60;;;;;;4995406;28;20022;-86
2023/08/22 12:15:36;;;;;;;7.10;1.55;;;29.70;99.40;;;;;;4995779;28;20479;-84
2023/08/22 12:18:04;;;;;;;3.05;1.30;;;29.80;99.10;;;;;;4995344;28;20488;-90
2023/08/22 12:20:30;;;;;;;5.07;1.88;;;29.90;98.70;;;;;;4995438;28;20038;-83
2023/08/22 12:22:55;;;;;;;6.10;1.52;;;29.90;98.90;;;;;;4995245;28;20030;-83
2023/08/22 12:25:21;;;;;;;2.75;1.50;;;29.90;98.40;;;;;;4996415;28;20108;-83
2023/08/22 12:27:47;;;;;;;2.97;1.45;;;30.00;98.40;;;;;;4996450;28;20030;-81
2023/08/22 12:30:12;;;;;;;5.07;1.60;;;30.00;98.30;;;;;;4995012;28;20036;-83
2023/08/22 12:32:38;;;;;;;3.45;1.52;;;30.10;98.40;;;;;;4995378;28;20057;-85
2023/08/22 12:35:04;;;;;;;2.75;1.50;;;30.20;98.20;;;;;;4996408;28;20459;-85
2023/08/22 12:37:30;;;;;;;4.20;2.05;;;30.20;98.20;;;;;;4995396;28;20031;-84
2023/08/22 12:39:55;;;;;;;3.33;1.80;;;30.20;98.60;;;;;;4994893;28;20496;-86
2023/08/22 12:42:21;;;;;;;4.80;1.90;;;30.30;98.30;;;;;;4996728;28;20046;-84
2023/08/22 12:44:46;;;;;;;2.17;1.50;;;30.30;97.90;;;;;;4996397;28;20109;-82